createdAt,value
2018-05-24T00:01:17.006Z,18.60
2018-05-24T00:03:47.573Z,18.60
2018-05-24T00:06:18.501Z,18.50
2018-05-24T00:08:49.536Z,18.70
2018-05-24T00:11:22.034Z,18.70
2018-05-24T00:13:52.219Z,18.70
2018-05-24T00:16:23.070Z,18.70
2018-05-24T00:18:55.130Z,18.60
2018-05-24T00:21:25.294Z,18.60
2018-05-24T00:23:55.802Z,18.60
2018-05-24T00:26:26.760Z,18.70
2018-05-24T00:28:57.029Z,18.60
2018-05-24T00:31:27.266Z,18.00
2018-05-24T00:33:58.180Z,18.60
2018-05-24T00:36:28.330Z,18.60
2018-05-24T00:38:59.261Z,18.80
2018-05-24T00:41:29.479Z,18.80
2018-05-24T00:43:59.661Z,20.10
2018-05-24T00:46:29.738Z,18.80
2018-05-24T00:49:00.610Z,19.00
2018-05-24T00:51:30.798Z,19.00
2018-05-24T00:54:02.115Z,18.90
2018-05-24T00:56:32.325Z,18.90
2018-05-24T00:59:02.431Z,18.90
2018-05-24T01:01:32.510Z,18.90
2018-05-24T01:04:02.769Z,18.80
2018-05-24T01:06:33.041Z,18.80
2018-05-24T01:09:03.621Z,18.70
2018-05-24T01:11:33.797Z,18.70
2018-05-24T01:14:05.394Z,18.50
2018-05-24T01:16:35.820Z,18.50
2018-05-24T01:19:06.751Z,18.60
2018-05-24T01:21:37.260Z,18.60
2018-05-24T01:24:07.967Z,18.50
2018-05-24T01:26:38.140Z,18.50
2018-05-24T01:29:09.358Z,18.50
2018-05-24T01:31:40.596Z,18.40
2018-05-24T01:34:12.801Z,18.50
2018-05-24T01:36:51.552Z,18.00
2018-05-24T01:39:21.721Z,18.00
2018-05-24T01:42:03.450Z,18.10
2018-05-24T01:44:34.791Z,18.10
2018-05-24T01:47:05.067Z,18.10
2018-05-24T01:49:37.044Z,18.10
2018-05-24T01:52:07.207Z,18.00
2018-05-24T01:54:37.615Z,17.80
2018-05-24T01:57:07.836Z,17.70
2018-05-24T01:59:38.016Z,17.70
2018-05-24T02:02:08.873Z,17.80
2018-05-24T02:04:39.421Z,17.60
2018-05-24T02:07:09.453Z,17.40
2018-05-24T02:09:39.573Z,17.30
2018-05-24T02:12:10.278Z,17.20
2018-05-24T02:14:40.410Z,17.20
2018-05-24T02:17:11.380Z,17.30
2018-05-24T02:19:42.004Z,17.30
2018-05-24T02:22:12.099Z,17.20
2018-05-24T02:24:42.273Z,17.20
2018-05-24T02:27:12.404Z,17.20
2018-05-24T02:29:43.125Z,17.30
2018-05-24T02:32:13.539Z,17.40
2018-05-24T02:34:44.034Z,17.40
2018-05-24T02:37:14.328Z,16.40
2018-05-24T02:39:45.367Z,17.20
2018-05-24T02:42:16.341Z,17.30
2018-05-24T02:44:46.381Z,17.20
2018-05-24T02:47:16.627Z,17.10
2018-05-24T02:49:46.714Z,17.00
2018-05-24T02:52:16.793Z,17.10
2018-05-24T02:54:47.858Z,16.90
2018-05-24T02:57:17.931Z,17.00
2018-05-24T02:59:48.195Z,17.10
2018-05-24T03:02:18.605Z,17.00
2018-05-24T03:04:48.734Z,17.00
2018-05-24T03:07:18.970Z,17.00
2018-05-24T03:09:50.919Z,16.80
2018-05-24T03:12:21.055Z,16.80
2018-05-24T03:14:52.631Z,16.80
2018-05-24T03:17:23.188Z,16.80
2018-05-24T03:19:54.117Z,16.80
2018-05-24T03:22:24.279Z,16.80
2018-05-24T03:24:54.362Z,16.60
2018-05-24T03:27:24.912Z,16.50
2018-05-24T03:29:55.051Z,16.50
2018-05-24T03:32:25.162Z,16.60
2018-05-24T03:34:56.526Z,16.30
2018-05-24T03:37:26.522Z,16.20
2018-05-24T03:39:57.324Z,16.60
2018-05-24T03:42:42.988Z,16.60
2018-05-24T03:45:13.885Z,16.40
2018-05-24T03:47:44.017Z,16.40
2018-05-24T03:50:14.127Z,16.50
2018-05-24T03:52:44.305Z,16.50
2018-05-24T03:55:14.833Z,16.60
2018-05-24T03:57:45.747Z,16.70
2018-05-24T04:04:33.425Z,16.50
2018-05-24T04:07:03.775Z,16.50
2018-05-24T04:09:34.348Z,16.60
2018-05-24T04:12:04.528Z,16.80
2018-05-24T04:14:34.723Z,16.70
2018-05-24T04:17:05.520Z,16.70
2018-05-24T04:19:35.591Z,16.80
2018-05-24T04:22:05.736Z,16.90
2018-05-24T04:24:37.142Z,16.90
2018-05-24T04:27:07.366Z,16.90
2018-05-24T04:29:37.442Z,17.10
2018-05-24T04:32:08.099Z,17.20
2018-05-24T04:34:38.208Z,18.20
2018-05-24T04:37:08.350Z,17.40
2018-05-24T04:39:39.003Z,18.30
2018-05-24T04:42:09.168Z,17.60
2018-05-24T04:44:39.443Z,17.70
2018-05-24T04:47:21.698Z,17.90
2018-05-24T04:49:52.009Z,17.90
2018-05-24T04:52:22.074Z,18.40
2018-05-24T04:54:52.545Z,19.20
2018-05-24T04:57:23.807Z,21.50
2018-05-24T04:59:53.893Z,21.50
2018-05-24T05:02:23.833Z,22.30
2018-05-24T05:04:54.973Z,23.30
2018-05-24T05:07:26.182Z,23.10
2018-05-24T05:09:56.936Z,23.10
2018-05-24T05:12:29.342Z,23.30
2018-05-24T05:14:59.773Z,23.30
2018-05-24T05:17:30.462Z,23.30
2018-05-24T05:20:01.596Z,23.10
2018-05-24T05:22:33.117Z,21.00
2018-05-24T05:26:05.973Z,21.00
2018-05-24T05:28:45.818Z,19.90
2018-05-24T05:31:18.869Z,19.90
2018-05-24T05:33:52.606Z,20.10
2018-05-24T05:36:27.722Z,20.30
2018-05-24T05:39:02.225Z,20.30
2018-05-24T05:41:37.337Z,19.10
2018-05-24T05:44:11.122Z,20.40
2018-05-24T05:46:45.302Z,21.00
2018-05-24T05:49:19.519Z,21.40
2018-05-24T05:51:55.826Z,22.00
2018-05-24T05:54:31.483Z,22.00
2018-05-24T05:57:05.602Z,22.50
2018-05-24T05:59:40.548Z,22.40
2018-05-24T06:02:13.991Z,22.30
2018-05-24T06:04:48.130Z,23.30
2018-05-24T06:07:20.998Z,25.20
2018-05-24T06:09:54.991Z,25.70
2018-05-24T06:12:26.368Z,26.50
2018-05-24T06:14:57.432Z,26.00
2018-05-24T06:17:28.695Z,26.00
2018-05-24T06:19:59.255Z,25.50
2018-05-24T06:22:30.157Z,23.90
2018-05-24T06:25:01.065Z,22.40
2018-05-24T06:27:33.196Z,20.90
2018-05-24T06:30:05.292Z,20.60
2018-05-24T06:32:36.582Z,20.70
2018-05-24T06:35:07.004Z,20.70
2018-05-24T06:37:37.592Z,20.80
2018-05-24T06:40:09.841Z,21.50
2018-05-24T06:42:42.848Z,20.80
2018-05-24T06:45:13.275Z,20.80
2018-05-24T06:47:44.316Z,20.10
2018-05-24T06:50:15.818Z,19.90
2018-05-24T06:52:47.765Z,19.90
2018-05-24T06:55:18.358Z,19.50
2018-05-24T06:57:50.714Z,19.40
2018-05-24T07:00:24.238Z,19.40
2018-05-24T07:02:57.944Z,19.70
2018-05-24T07:05:30.024Z,19.70
2018-05-24T07:08:01.043Z,19.70
2018-05-24T07:10:35.759Z,20.10
2018-05-24T07:13:06.915Z,20.30
2018-05-24T07:15:37.709Z,20.80
2018-05-24T07:18:09.574Z,21.30
2018-05-24T07:20:40.252Z,20.90
2018-05-24T07:23:12.013Z,19.50
2018-05-24T07:25:42.433Z,19.50
2018-05-24T07:28:14.392Z,20.50
2018-05-24T07:30:48.761Z,21.50
2018-05-24T07:33:28.176Z,21.50
2018-05-24T07:35:58.492Z,22.40
2018-05-24T07:38:29.426Z,22.50
2018-05-24T07:40:59.945Z,22.70
2018-05-24T07:43:30.967Z,22.30
2018-05-24T07:46:02.560Z,22.30
2018-05-24T07:48:32.949Z,22.30
2018-05-24T07:51:05.877Z,22.60
2018-05-24T07:53:40.564Z,22.50
2018-05-24T07:56:19.616Z,22.50
2018-05-24T07:58:52.805Z,22.50
2018-05-24T08:01:27.834Z,22.80
2018-05-24T08:04:01.593Z,23.20
2018-05-24T08:06:37.063Z,23.40
2018-05-24T08:09:46.098Z,22.90
2018-05-24T08:12:21.072Z,22.90
2018-05-24T08:14:54.564Z,21.90
2018-05-24T08:17:28.196Z,21.60
2018-05-24T08:20:02.197Z,22.70
2018-05-24T08:22:36.691Z,22.50
2018-05-24T08:25:10.736Z,22.60
2018-05-24T08:27:42.112Z,22.70
2018-05-24T08:30:14.024Z,23.00
2018-05-24T08:32:44.787Z,22.70
2018-05-24T08:35:15.647Z,22.50
2018-05-24T08:37:48.095Z,23.10
2018-05-24T08:40:20.062Z,23.40
2018-05-24T08:42:51.351Z,23.10
2018-05-24T08:45:23.556Z,23.70
2018-05-24T08:47:54.310Z,23.60
2018-05-24T08:50:25.989Z,24.30
2018-05-24T08:52:57.358Z,25.20
2018-05-24T08:55:29.547Z,25.50
2018-05-24T08:58:03.804Z,25.40
2018-05-24T09:00:37.975Z,25.50
2018-05-24T09:03:09.651Z,25.50
2018-05-24T09:05:45.202Z,23.30
2018-05-24T09:08:18.631Z,23.30
2018-05-24T09:10:49.136Z,20.50
2018-05-24T09:16:05.251Z,21.90
2018-05-24T09:18:39.927Z,22.70
2018-05-24T09:21:13.151Z,24.00
2018-05-24T09:23:45.601Z,24.00
2018-05-24T09:26:16.768Z,24.30
2018-05-24T09:28:50.061Z,24.30
2018-05-24T09:31:27.667Z,25.20
2018-05-24T09:34:00.873Z,26.20
2018-05-24T09:36:35.344Z,25.10
2018-05-24T09:39:12.450Z,24.70
2018-05-24T09:41:45.701Z,25.30
2018-05-24T09:44:16.541Z,25.40
2018-05-24T09:46:49.070Z,25.80
2018-05-24T09:49:21.674Z,26.00
2018-05-24T09:54:28.877Z,26.40
2018-05-24T09:57:00.982Z,26.50
2018-05-24T09:59:38.314Z,26.70
2018-05-24T10:02:15.930Z,26.70
2018-05-24T10:04:59.028Z,26.70
2018-05-24T10:07:35.902Z,25.70
2018-05-24T10:10:11.420Z,25.30
2018-05-24T10:12:48.092Z,25.40
2018-05-24T10:15:37.905Z,25.40
2018-05-24T10:18:18.980Z,25.80
2018-05-24T10:20:56.664Z,26.90
2018-05-24T10:23:32.142Z,27.00
2018-05-24T10:26:20.948Z,27.00
2018-05-24T10:28:59.051Z,27.40
2018-05-24T10:31:34.255Z,27.70
2018-05-24T10:34:11.142Z,27.70
2018-05-24T10:36:46.179Z,27.30
2018-05-24T10:39:22.999Z,27.30
2018-05-24T10:41:59.684Z,27.50
2018-05-24T10:44:37.923Z,27.50
2018-05-24T10:47:14.324Z,27.40
2018-05-24T10:49:51.660Z,27.10
2018-05-24T10:52:29.352Z,27.10
2018-05-24T10:55:04.588Z,27.00
2018-05-24T10:57:40.889Z,26.40
2018-05-24T11:00:18.294Z,26.40
2018-05-24T11:02:53.902Z,24.50
2018-05-24T11:05:31.381Z,24.10
2018-05-24T11:08:04.400Z,24.10
2018-05-24T11:10:41.471Z,23.90
2018-05-24T11:13:15.971Z,23.70
2018-05-24T11:15:49.495Z,23.00
2018-05-24T11:21:27.926Z,22.50
2018-05-24T11:24:01.375Z,22.10
2018-05-24T11:26:33.009Z,21.10
2018-05-24T11:29:11.909Z,21.50
2018-05-24T11:31:47.946Z,21.50
2018-05-24T11:34:23.105Z,21.50
2018-05-24T11:36:56.589Z,21.40
2018-05-24T11:39:30.203Z,21.80
2018-05-24T11:42:05.152Z,22.20
2018-05-24T11:44:42.823Z,22.60
2018-05-24T11:50:24.740Z,23.50
2018-05-24T11:52:56.328Z,23.80
2018-05-24T11:55:28.109Z,24.30
2018-05-24T11:58:01.510Z,24.50
2018-05-24T12:00:40.342Z,23.50
2018-05-24T12:03:17.887Z,25.50
2018-05-24T12:05:50.422Z,25.50
2018-05-24T12:08:24.264Z,25.00
2018-05-24T12:10:56.572Z,25.00
2018-05-24T12:13:28.987Z,23.70
2018-05-24T12:16:02.346Z,24.60
2018-05-24T12:18:48.402Z,25.10
2018-05-24T12:21:25.075Z,24.30
2018-05-24T12:24:02.278Z,24.60
2018-05-24T12:26:35.323Z,24.30
2018-05-24T12:29:09.450Z,24.80
2018-05-24T12:31:48.376Z,25.30
2018-05-24T12:34:23.559Z,25.20
2018-05-24T12:36:54.656Z,25.20
2018-05-24T12:39:26.041Z,24.50
2018-05-24T12:42:00.728Z,24.30
2018-05-24T12:44:35.978Z,23.90
2018-05-24T12:47:12.648Z,23.90
2018-05-24T12:49:46.198Z,23.10
2018-05-24T12:52:19.303Z,22.90
2018-05-24T12:54:51.905Z,22.60
2018-05-24T12:57:22.777Z,23.30
2018-05-24T12:59:56.004Z,23.80
2018-05-24T13:02:27.981Z,23.70
2018-05-24T13:04:59.823Z,23.70
2018-05-24T13:07:31.648Z,23.70
2018-05-24T13:10:04.626Z,22.50
2018-05-24T13:12:37.677Z,22.00
2018-05-24T13:15:14.003Z,22.90
2018-05-24T13:17:46.259Z,22.80
2018-05-24T13:20:17.938Z,23.80
2018-05-24T13:22:49.995Z,24.00
2018-05-24T13:25:22.505Z,24.30
2018-05-24T13:27:55.679Z,24.20
2018-05-24T13:30:27.101Z,23.50
2018-05-24T13:32:59.739Z,23.30
2018-05-24T13:35:31.847Z,23.40
2018-05-24T13:38:08.216Z,23.40
2018-05-24T13:40:44.764Z,24.30
2018-05-24T13:43:19.634Z,24.20
2018-05-24T13:45:54.759Z,25.30
2018-05-24T13:48:30.863Z,25.30
2018-05-24T13:51:05.981Z,25.60
2018-05-24T13:53:41.807Z,25.70
2018-05-24T13:56:14.930Z,25.80
2018-05-24T13:58:49.474Z,25.50
2018-05-24T14:01:21.393Z,25.50
2018-05-24T14:03:53.252Z,24.40
2018-05-24T14:06:24.735Z,23.80
2018-05-24T14:09:08.403Z,23.80
2018-05-24T14:11:44.050Z,23.80
2018-05-24T14:14:17.084Z,24.30
2018-05-24T14:16:50.555Z,24.70
2018-05-24T14:19:22.534Z,24.80
2018-05-24T14:21:55.305Z,24.70
2018-05-24T14:24:30.882Z,23.10
2018-05-24T14:27:04.592Z,23.20
2018-05-24T14:29:38.449Z,23.20
2018-05-24T14:32:11.611Z,23.10
2018-05-24T14:34:43.812Z,23.50
2018-05-24T14:37:14.140Z,23.50
2018-05-24T14:39:46.033Z,24.10
2018-05-24T14:42:20.085Z,24.10
2018-05-24T14:44:51.475Z,25.00
2018-05-24T14:47:22.452Z,24.70
2018-05-24T14:49:58.216Z,25.00
2018-05-24T14:52:29.836Z,24.90
2018-05-24T14:55:07.054Z,24.90
2018-05-24T14:57:40.226Z,23.70
2018-05-24T15:00:12.957Z,22.90
2018-05-24T15:02:48.645Z,22.60
2018-05-24T15:05:19.619Z,22.90
2018-05-24T15:07:51.394Z,23.30
2018-05-24T15:10:22.921Z,23.80
2018-05-24T15:12:54.249Z,24.00
2018-05-24T15:15:26.911Z,24.10
2018-05-24T15:18:01.093Z,23.30
2018-05-24T15:20:31.726Z,23.30
2018-05-24T15:23:04.033Z,22.80
2018-05-24T15:25:39.595Z,23.50
2018-05-24T15:28:15.207Z,23.40
2018-05-24T15:30:47.068Z,24.10
2018-05-24T15:33:18.789Z,24.90
2018-05-24T15:35:50.197Z,25.30
2018-05-24T15:38:24.298Z,24.80
2018-05-24T15:40:56.624Z,25.30
2018-05-24T15:43:31.350Z,25.60
2018-05-24T15:46:04.030Z,26.00
2018-05-24T15:48:39.468Z,26.50
2018-05-24T15:51:12.877Z,26.70
2018-05-24T15:53:44.030Z,26.30
2018-05-24T15:56:15.444Z,26.00
2018-05-24T15:58:47.852Z,24.30
2018-05-24T16:01:18.492Z,24.30
2018-05-24T16:03:49.620Z,23.20
2018-05-24T16:06:21.516Z,23.80
2018-05-24T16:08:52.646Z,23.60
2018-05-24T16:11:23.620Z,23.60
2018-05-24T16:13:55.128Z,23.50
2018-05-24T16:16:25.471Z,22.70
2018-05-24T16:18:56.577Z,22.80
2018-05-24T16:21:27.671Z,22.80
2018-05-24T16:23:59.552Z,23.20
2018-05-24T16:26:32.808Z,23.70
2018-05-24T16:29:04.736Z,23.60
2018-05-24T16:31:36.076Z,22.80
2018-05-24T16:34:09.317Z,22.30
2018-05-24T16:36:42.043Z,22.40
2018-05-24T16:39:13.116Z,23.00
2018-05-24T16:41:44.719Z,23.00
2018-05-24T16:44:16.960Z,22.90
2018-05-24T16:46:48.097Z,22.90
2018-05-24T16:49:19.339Z,22.70
2018-05-24T16:51:51.684Z,22.90
2018-05-24T16:54:22.499Z,23.00
2018-05-24T16:56:55.281Z,23.00
2018-05-24T16:59:26.277Z,22.80
2018-05-24T17:01:57.752Z,22.40
2018-05-24T17:04:29.486Z,22.50
2018-05-24T17:07:00.628Z,23.00
2018-05-24T17:09:32.231Z,24.30
2018-05-24T17:12:02.675Z,23.70
2018-05-24T17:14:33.519Z,23.90
2018-05-24T17:17:05.323Z,23.70
2018-05-24T17:19:35.715Z,23.70
2018-05-24T17:22:09.412Z,24.00
2018-05-24T17:24:39.988Z,24.00
2018-05-24T17:27:14.258Z,24.20
2018-05-24T17:29:46.368Z,24.30
2018-05-24T17:32:18.832Z,24.40
2018-05-24T17:34:49.638Z,24.30
2018-05-24T17:37:23.609Z,24.10
2018-05-24T17:39:54.281Z,24.00
2018-05-24T17:42:25.339Z,23.70
2018-05-24T17:44:56.192Z,23.70
2018-05-24T17:47:29.054Z,23.40
2018-05-24T17:50:03.444Z,23.30
2018-05-24T17:52:34.015Z,23.30
2018-05-24T17:55:07.401Z,23.30
2018-05-24T17:57:37.830Z,24.80
2018-05-24T18:00:08.792Z,23.60
2018-05-24T18:02:40.471Z,23.70
2018-05-24T18:05:12.434Z,23.90
2018-05-24T18:07:45.470Z,23.90
2018-05-24T18:10:16.833Z,23.90
2018-05-24T18:12:48.465Z,23.70
2018-05-24T18:15:19.536Z,23.40
2018-05-24T18:17:51.886Z,23.00
2018-05-24T18:20:22.653Z,22.80
2018-05-24T18:22:54.835Z,22.70
2018-05-24T18:25:26.343Z,22.80
2018-05-24T18:28:01.504Z,22.80
2018-05-24T18:30:35.308Z,22.80
2018-05-24T18:33:07.511Z,22.80
2018-05-24T18:35:37.846Z,22.70
2018-05-24T18:38:08.552Z,22.60
2018-05-24T18:40:39.684Z,22.50
2018-05-24T18:43:10.510Z,23.20
2018-05-24T18:45:40.884Z,22.70
2018-05-24T18:48:12.730Z,23.00
2018-05-24T18:50:43.299Z,23.00
2018-05-24T18:53:14.660Z,23.00
2018-05-24T18:55:45.275Z,23.00
2018-05-24T18:58:18.218Z,22.90
2018-05-24T19:00:49.881Z,23.20
2018-05-24T19:03:23.024Z,23.10
2018-05-24T19:05:53.667Z,23.10
2018-05-24T19:08:26.747Z,23.00
2018-05-24T19:10:57.682Z,22.90
2018-05-24T19:13:28.225Z,22.80
2018-05-24T19:15:59.991Z,22.80
2018-05-24T19:18:33.608Z,22.30
2018-05-24T19:21:06.953Z,22.10
2018-05-24T19:26:25.189Z,21.80
2018-05-24T19:28:57.931Z,21.80
2018-05-24T19:31:30.615Z,21.50
2018-05-24T19:34:03.530Z,22.20
2018-05-24T19:36:36.557Z,21.40
2018-05-24T19:39:08.749Z,21.00
2018-05-24T19:41:42.953Z,21.00
2018-05-24T19:44:16.315Z,21.00
2018-05-24T19:46:47.495Z,21.10
2018-05-24T19:49:18.639Z,21.30
2018-05-24T19:51:49.030Z,21.30
2018-05-24T19:54:19.235Z,21.30
2018-05-24T19:56:50.763Z,21.00
2018-05-24T19:59:20.957Z,21.00
2018-05-24T20:01:51.173Z,20.70
2018-05-24T20:04:21.898Z,20.70
2018-05-24T20:06:52.122Z,20.90
2018-05-24T20:09:22.278Z,21.10
2018-05-24T20:11:53.405Z,20.70
2018-05-24T20:14:23.737Z,20.50
2018-05-24T20:16:54.088Z,20.50
2018-05-24T20:19:24.489Z,20.30
2018-05-24T20:21:55.524Z,20.10
2018-05-24T20:24:26.283Z,19.80
2018-05-24T20:26:56.635Z,19.60
2018-05-24T20:29:28.585Z,19.70
2018-05-24T20:31:59.965Z,20.00
2018-05-24T20:34:30.311Z,20.00
2018-05-24T20:37:00.604Z,20.30
2018-05-24T20:39:31.295Z,20.50
2018-05-24T20:42:01.550Z,20.70
2018-05-24T20:44:31.793Z,21.00
2018-05-24T20:47:02.298Z,21.10
2018-05-24T20:49:33.188Z,21.30
2018-05-24T20:52:03.373Z,21.00
2018-05-24T20:54:33.881Z,20.90
2018-05-24T20:57:04.777Z,20.80
2018-05-24T20:59:35.483Z,20.80
2018-05-24T21:02:05.614Z,20.60
2018-05-24T21:04:36.024Z,20.70
2018-05-24T21:07:07.289Z,20.00
2018-05-24T21:09:37.621Z,20.90
2018-05-24T21:12:07.905Z,21.00
2018-05-24T21:14:39.436Z,20.60
2018-05-24T21:17:10.147Z,20.70
2018-05-24T21:19:40.404Z,20.50
2018-05-24T21:22:11.166Z,20.20
2018-05-24T21:24:42.277Z,20.60
2018-05-24T21:27:13.374Z,20.50
2018-05-24T21:29:43.502Z,20.50
2018-05-24T21:32:13.817Z,20.50
2018-05-24T21:34:44.669Z,20.40
2018-05-24T21:37:15.187Z,20.40
2018-05-24T21:39:45.632Z,20.40
2018-05-24T21:42:16.014Z,20.40
2018-05-24T21:44:46.459Z,20.50
2018-05-24T21:47:16.708Z,20.50
2018-05-24T21:49:49.184Z,20.50
2018-05-24T21:52:20.654Z,20.50
2018-05-24T21:54:51.433Z,20.60
2018-05-24T21:57:21.519Z,20.60
2018-05-24T21:59:52.335Z,20.50
2018-05-24T22:02:23.807Z,20.50
2018-05-24T22:04:54.605Z,20.40
2018-05-24T22:07:24.709Z,20.40
2018-05-24T22:09:58.011Z,20.00
2018-05-24T22:12:28.035Z,20.10
2018-05-24T22:14:59.581Z,20.10
2018-05-24T22:17:30.387Z,20.20
2018-05-24T22:20:00.478Z,20.30
2018-05-24T22:22:30.518Z,20.20
2018-05-24T22:25:01.119Z,20.10
2018-05-24T22:27:31.525Z,20.00
2018-05-24T22:30:01.891Z,20.00
2018-05-24T22:32:33.843Z,19.50
2018-05-24T22:35:05.480Z,20.60
2018-05-24T22:37:35.555Z,19.10
2018-05-24T22:40:07.398Z,19.00
2018-05-24T22:42:38.201Z,19.00
2018-05-24T22:45:08.343Z,19.00
2018-05-24T22:47:39.387Z,19.50
2018-05-24T22:50:10.250Z,19.50
2018-05-24T22:52:40.212Z,19.50
2018-05-24T22:55:10.611Z,19.50
2018-05-24T22:57:40.594Z,19.50
2018-05-24T23:00:11.599Z,19.70
2018-05-24T23:02:42.904Z,19.60
2018-05-24T23:05:14.007Z,19.60
2018-05-24T23:07:44.574Z,19.60
2018-05-24T23:10:14.915Z,19.50
2018-05-24T23:12:46.182Z,19.50
2018-05-24T23:15:16.780Z,19.10
2018-05-24T23:17:46.932Z,19.00
2018-05-24T23:20:17.011Z,19.20
2018-05-24T23:22:47.542Z,19.30
2018-05-24T23:25:17.640Z,19.40
2018-05-24T23:27:48.538Z,19.10
2018-05-24T23:30:18.997Z,19.10
2018-05-24T23:32:49.777Z,18.80
2018-05-24T23:35:19.850Z,18.80
2018-05-24T23:37:51.035Z,18.80
2018-05-24T23:40:21.396Z,18.40
2018-05-24T23:42:51.582Z,18.80
2018-05-24T23:45:22.073Z,18.90
